createdAt,value
2023-02-27T00:04:54.519Z,99043.44
2023-02-27T00:10:16.945Z,99039.13
2023-02-27T00:15:40.934Z,99046.69
2023-02-27T00:21:03.103Z,99043.50
2023-02-27T00:26:24.951Z,99050.50
2023-02-27T00:31:46.765Z,99038.25
2023-02-27T00:37:08.615Z,99039.91
2023-02-27T00:42:31.157Z,99036.56
2023-02-27T00:47:52.867Z,99037.47
2023-02-27T00:53:14.572Z,99045.44
2023-02-27T00:58:36.286Z,99037.56
2023-02-27T01:03:57.986Z,99046.38
2023-02-27T01:09:19.819Z,99049.66
2023-02-27T01:14:43.743Z,99047.81
2023-02-27T01:20:07.076Z,99051.59
2023-02-27T01:25:28.789Z,99034.38
2023-02-27T01:30:50.561Z,99027.13
2023-02-27T01:36:12.312Z,99026.50
2023-02-27T01:41:34.139Z,99015.34
2023-02-27T01:46:56.287Z,99030.25
2023-02-27T01:52:17.989Z,99024.22
2023-02-27T01:57:43.106Z,99032.78
2023-02-27T02:03:10.021Z,99026.28
2023-02-27T02:08:36.676Z,99024.28
2023-02-27T02:14:01.288Z,99024.25
2023-02-27T02:20:00.633Z,99026.09
2023-02-27T02:25:31.398Z,99031.34
2023-02-27T02:31:11.848Z,99033.09
2023-02-27T02:37:13.447Z,99032.91
2023-02-27T02:42:54.635Z,99024.94
2023-02-27T02:48:19.158Z,99035.41
2023-02-27T02:54:04.771Z,99029.47
2023-02-27T02:59:39.903Z,99042.41
2023-02-27T03:05:08.294Z,99042.31
2023-02-27T03:10:44.608Z,99043.47
2023-02-27T03:16:14.965Z,99044.16
2023-02-27T03:21:42.824Z,99047.47
2023-02-27T03:27:06.553Z,99050.34
2023-02-27T03:32:38.094Z,99055.38
2023-02-27T03:38:35.267Z,99059.44
2023-02-27T03:44:15.455Z,99056.13
2023-02-27T03:49:37.168Z,99067.25
2023-02-27T03:55:09.955Z,99068.44
2023-02-27T04:00:31.888Z,99069.03
2023-02-27T04:05:53.786Z,99084.47
2023-02-27T04:11:40.795Z,99079.38
2023-02-27T04:17:24.444Z,99088.81
2023-02-27T04:23:10.354Z,99093.03
2023-02-27T04:28:44.950Z,99085.31
2023-02-27T04:34:21.831Z,99080.50
2023-02-27T04:39:53.330Z,99078.88
2023-02-27T04:45:20.612Z,99076.25
2023-02-27T04:50:50.119Z,99095.13
2023-02-27T04:56:23.351Z,99091.84
2023-02-27T05:01:57.510Z,99084.00
2023-02-27T05:07:29.554Z,99081.34
2023-02-27T05:12:59.879Z,99082.25
2023-02-27T05:18:23.308Z,99102.78
2023-02-27T05:24:11.159Z,99104.72
2023-02-27T05:29:48.657Z,99113.19
2023-02-27T05:35:27.432Z,99109.63
2023-02-27T05:40:58.289Z,99117.16
2023-02-27T05:46:24.654Z,99118.91
2023-02-27T05:51:50.157Z,99118.94
2023-02-27T05:57:17.951Z,99123.38
2023-02-27T06:02:41.064Z,99122.34
2023-02-27T06:08:03.066Z,99126.59
2023-02-27T06:13:25.997Z,99110.38
2023-02-27T06:18:47.783Z,99130.94
2023-02-27T06:24:09.548Z,99128.38
2023-02-27T06:29:31.331Z,99130.84
2023-02-27T06:34:53.567Z,99135.06
2023-02-27T06:40:15.724Z,99134.19
2023-02-27T06:45:37.501Z,99136.88
2023-02-27T06:50:59.473Z,99129.97
2023-02-27T06:56:21.164Z,99147.13
2023-02-27T07:01:43.076Z,99137.69
2023-02-27T07:07:33.347Z,99144.56
2023-02-27T07:12:46.943Z,99149.91
2023-02-27T07:18:08.639Z,99155.56
2023-02-27T07:23:30.384Z,99162.34
2023-02-27T07:28:52.052Z,99161.53
2023-02-27T07:34:15.567Z,99166.69
2023-02-27T07:39:37.272Z,99164.19
2023-02-27T07:44:59.169Z,99164.25
2023-02-27T07:50:20.918Z,99159.03
2023-02-27T07:55:42.663Z,99164.09
2023-02-27T08:01:04.503Z,99169.22
2023-02-27T08:06:26.388Z,99170.00
2023-02-27T08:11:49.266Z,99164.63
2023-02-27T08:17:11.219Z,99163.94
2023-02-27T08:22:33.194Z,99164.56
2023-02-27T08:27:54.985Z,99160.03
2023-02-27T08:33:17.140Z,99157.38
2023-02-27T08:38:38.872Z,99164.28
2023-02-27T08:44:00.859Z,99167.66
2023-02-27T08:49:25.042Z,99177.88
2023-02-27T08:54:46.806Z,99178.47
2023-02-27T09:00:10.727Z,99183.56
2023-02-27T09:05:35.223Z,99181.84
2023-02-27T09:10:57.900Z,99193.00
2023-02-27T09:16:20.799Z,99186.75
2023-02-27T09:21:42.711Z,99172.06
2023-02-27T09:27:04.500Z,99180.38
2023-02-27T09:32:27.166Z,99184.47
2023-02-27T09:37:52.282Z,99181.78
2023-02-27T09:43:18.705Z,99180.69
2023-02-27T09:48:50.449Z,99178.88
2023-02-27T09:54:12.703Z,99176.97
2023-02-27T09:59:36.216Z,99177.59
2023-02-27T10:05:12.977Z,99180.91
2023-02-27T10:10:49.950Z,99180.69
2023-02-27T10:16:15.341Z,99184.63
2023-02-27T10:21:43.869Z,99180.69
2023-02-27T10:27:13.703Z,99194.28
2023-02-27T10:32:36.072Z,99191.41
2023-02-27T10:38:05.878Z,99194.72
2023-02-27T10:43:27.650Z,99192.94
2023-02-27T10:48:49.940Z,99191.03
2023-02-27T10:54:23.882Z,99195.84
2023-02-27T10:59:53.167Z,99194.72
2023-02-27T11:05:28.033Z,99190.97
2023-02-27T11:11:00.383Z,99183.72
2023-02-27T11:16:22.243Z,99180.47
2023-02-27T11:22:14.767Z,99172.31
2023-02-27T11:27:36.530Z,99174.91
2023-02-27T11:33:00.771Z,99164.31
2023-02-27T11:38:24.887Z,99153.88
2023-02-27T11:43:52.236Z,99148.56
2023-02-27T11:49:32.157Z,99166.13
2023-02-27T11:54:57.821Z,99156.09
2023-02-27T12:00:32.985Z,99160.31
2023-02-27T12:05:59.774Z,99165.50
2023-02-27T12:11:29.791Z,99164.13
2023-02-27T12:17:03.127Z,99159.53
2023-02-27T12:22:30.679Z,99163.78
2023-02-27T12:28:00.790Z,99159.00
2023-02-27T12:33:38.347Z,99149.72
2023-02-27T12:39:00.176Z,99150.56
2023-02-27T12:44:50.341Z,99144.75
2023-02-27T12:50:41.208Z,99132.97
2023-02-27T12:56:21.955Z,99126.16
2023-02-27T13:01:51.088Z,99145.25
2023-02-27T13:07:28.549Z,99141.22
2023-02-27T13:12:59.314Z,99145.00
2023-02-27T13:18:45.258Z,99137.41
2023-02-27T13:24:26.249Z,99124.69
2023-02-27T13:30:19.197Z,99118.53
2023-02-27T13:35:59.324Z,99132.28
2023-02-27T13:41:20.988Z,99142.88
2023-02-27T13:46:42.751Z,99132.91
2023-02-27T13:52:04.876Z,99128.00
2023-02-27T13:57:35.359Z,99113.88
2023-02-27T14:03:01.770Z,99119.94
2023-02-27T14:08:27.209Z,99124.53
2023-02-27T14:13:49.670Z,99127.81
2023-02-27T14:19:17.902Z,99142.34
2023-02-27T14:25:01.515Z,99142.88
2023-02-27T14:30:42.904Z,99136.63
2023-02-27T14:36:08.558Z,99137.25
2023-02-27T14:42:15.867Z,99147.13
2023-02-27T14:47:39.263Z,99157.94
2023-02-27T14:53:01.576Z,99155.53
2023-02-27T14:58:25.133Z,99155.50
2023-02-27T15:03:49.563Z,99169.16
2023-02-27T15:09:47.842Z,99169.97
2023-02-27T15:15:16.364Z,99174.13
2023-02-27T15:20:38.244Z,99179.56
2023-02-27T15:26:00.289Z,99195.13
2023-02-27T15:31:26.866Z,99195.81
2023-02-27T15:36:53.275Z,99202.03
2023-02-27T15:42:15.256Z,99204.63
2023-02-27T15:47:37.320Z,99211.72
2023-02-27T15:53:10.934Z,99207.50
2023-02-27T15:58:38.969Z,99219.81
2023-02-27T16:04:05.227Z,99225.28
2023-02-27T16:09:35.707Z,99234.53
2023-02-27T16:15:34.326Z,99243.28
2023-02-27T16:21:09.314Z,99250.25
2023-02-27T16:26:33.021Z,99254.94
2023-02-27T16:31:56.558Z,99250.25
2023-02-27T16:37:33.704Z,99266.97
2023-02-27T16:42:56.298Z,99275.28
2023-02-27T16:48:17.981Z,99275.19
2023-02-27T16:53:39.682Z,99277.06
2023-02-27T16:59:02.235Z,99290.91
2023-02-27T17:04:26.354Z,99296.25
2023-02-27T17:09:48.171Z,99298.63
2023-02-27T17:15:10.480Z,99305.75
2023-02-27T17:20:32.235Z,99314.75
2023-02-27T17:25:54.535Z,99324.50
2023-02-27T17:31:16.304Z,99325.13
2023-02-27T17:36:38.538Z,99331.78
2023-02-27T17:42:00.230Z,99320.78
2023-02-27T17:47:22.084Z,99345.22
2023-02-27T17:52:43.910Z,99344.34
2023-02-27T17:58:05.567Z,99344.31
2023-02-27T18:03:31.024Z,99346.75
2023-02-27T18:08:52.755Z,99352.00
2023-02-27T18:14:14.837Z,99365.03
2023-02-27T18:19:42.744Z,99364.22
2023-02-27T18:25:06.307Z,99369.63
2023-02-27T18:30:33.536Z,99379.03
2023-02-27T18:35:55.238Z,99378.22
2023-02-27T18:41:16.982Z,99378.22
2023-02-27T18:46:39.177Z,99374.06
2023-02-27T18:52:01.354Z,99375.75
2023-02-27T18:57:23.211Z,99375.06
2023-02-27T19:02:45.585Z,99380.28
2023-02-27T19:08:07.366Z,99388.06
2023-02-27T19:13:29.120Z,99387.41
2023-02-27T19:18:51.029Z,99380.34
2023-02-27T19:24:14.055Z,99381.19
2023-02-27T19:29:35.800Z,99390.81
2023-02-27T19:34:57.567Z,99389.28
2023-02-27T19:40:21.390Z,99388.31
2023-02-27T19:45:43.131Z,99390.88
2023-02-27T19:51:07.642Z,99383.16
2023-02-27T19:56:30.141Z,99384.97
2023-02-27T20:01:52.937Z,99384.31
2023-02-27T20:07:14.796Z,99379.06
2023-02-27T20:12:36.639Z,99376.66
2023-02-27T20:17:58.343Z,99378.34
2023-02-27T20:23:20.795Z,99379.22
2023-02-27T20:28:42.799Z,99375.97
2023-02-27T20:34:06.428Z,99380.50
2023-02-27T20:39:28.923Z,99375.09
2023-02-27T20:44:50.788Z,99372.53
2023-02-27T20:50:12.595Z,99369.06
2023-02-27T20:55:34.376Z,99362.09
2023-02-27T21:00:56.301Z,99364.91
2023-02-27T21:06:19.383Z,99369.22
2023-02-27T21:11:41.160Z,99364.84
2023-02-27T21:17:04.568Z,99368.19
2023-02-27T21:22:26.354Z,99361.53
2023-02-27T21:27:48.577Z,99363.16
2023-02-27T21:33:10.349Z,99354.75
2023-02-27T21:38:32.140Z,99349.19
2023-02-27T21:44:01.052Z,99350.97
2023-02-27T21:49:26.471Z,99344.97
2023-02-27T21:54:48.297Z,99339.91
2023-02-27T22:00:11.440Z,99325.94
2023-02-27T22:05:33.228Z,99336.63
2023-02-27T22:10:59.039Z,99329.66
2023-02-27T22:16:21.253Z,99318.44
2023-02-27T22:21:43.044Z,99328.03
2023-02-27T22:27:04.809Z,99326.06
2023-02-27T22:32:26.568Z,99328.75
2023-02-27T22:37:48.548Z,99330.56
2023-02-27T22:43:11.154Z,99334.94
2023-02-27T22:48:33.817Z,99328.16
2023-02-27T22:53:57.563Z,99326.78
2023-02-27T22:59:19.821Z,99326.69
2023-02-27T23:04:41.547Z,99321.56
2023-02-27T23:10:09.526Z,99325.09
2023-02-27T23:15:31.283Z,99333.88
2023-02-27T23:20:53.099Z,99334.84
2023-02-27T23:26:15.127Z,99335.06
2023-02-27T23:31:37.460Z,99330.53
2023-02-27T23:36:59.403Z,99326.38
2023-02-27T23:42:21.221Z,99339.38
2023-02-27T23:47:45.879Z,99328.22
2023-02-27T23:53:07.616Z,99324.91
2023-02-27T23:58:29.623Z,99334.13
